sensor_id;sensor_type;location;lat;lon;timestamp;P1;durP1;ratioP1;P2;durP2;ratioP2
14272;SDS011;7220;49.450;11.052;2023-02-03T00:03:05;4.45;;;3.53;;
14272;SDS011;7220;49.450;11.052;2023-02-03T00:07:06;4.10;;;3.28;;
14272;SDS011;7220;49.450;11.052;2023-02-03T00:11:10;4.10;;;3.63;;
14272;SDS011;7220;49.450;11.052;2023-02-03T00:15:10;4.45;;;3.30;;
14272;SDS011;7220;49.450;11.052;2023-02-03T00:19:11;5.65;;;3.83;;
14272;SDS011;7220;49.450;11.052;2023-02-03T00:23:11;4.75;;;4.03;;
14272;SDS011;7220;49.450;11.052;2023-02-03T00:27:12;4.35;;;3.83;;
14272;SDS011;7220;49.450;11.052;2023-02-03T00:31:17;6.32;;;3.78;;
14272;SDS011;7220;49.450;11.052;2023-02-03T00:35:19;3.53;;;3.20;;
14272;SDS011;7220;49.450;11.052;2023-02-03T00:39:19;7.65;;;3.63;;
14272;SDS011;7220;49.450;11.052;2023-02-03T00:43:20;5.75;;;3.90;;
14272;SDS011;7220;49.450;11.052;2023-02-03T00:47:20;5.20;;;4.30;;
14272;SDS011;7220;49.450;11.052;2023-02-03T00:51:20;4.50;;;4.10;;
14272;SDS011;7220;49.450;11.052;2023-02-03T00:55:21;8.00;;;3.80;;
14272;SDS011;7220;49.450;11.052;2023-02-03T00:59:21;4.40;;;4.00;;
14272;SDS011;7220;49.450;11.052;2023-02-03T01:03:21;5.50;;;4.53;;
14272;SDS011;7220;49.450;11.052;2023-02-03T01:07:22;6.78;;;4.22;;
14272;SDS011;7220;49.450;11.052;2023-02-03T01:11:24;7.13;;;4.43;;
14272;SDS011;7220;49.450;11.052;2023-02-03T01:15:29;5.20;;;4.40;;
14272;SDS011;7220;49.450;11.052;2023-02-03T01:19:29;6.57;;;4.45;;
14272;SDS011;7220;49.450;11.052;2023-02-03T01:23:29;7.90;;;5.63;;
14272;SDS011;7220;49.450;11.052;2023-02-03T01:27:30;5.65;;;5.00;;
14272;SDS011;7220;49.450;11.052;2023-02-03T01:31:32;7.85;;;5.68;;
14272;SDS011;7220;49.450;11.052;2023-02-03T01:35:35;7.63;;;5.40;;
14272;SDS011;7220;49.450;11.052;2023-02-03T01:39:36;7.85;;;5.47;;
14272;SDS011;7220;49.450;11.052;2023-02-03T01:43:37;8.82;;;5.60;;
14272;SDS011;7220;49.450;11.052;2023-02-03T01:47:45;9.30;;;6.05;;
14272;SDS011;7220;49.450;11.052;2023-02-03T01:51:49;7.25;;;6.03;;
14272;SDS011;7220;49.450;11.052;2023-02-03T01:55:52;6.80;;;5.72;;
14272;SDS011;7220;49.450;11.052;2023-02-03T01:59:53;7.75;;;6.18;;
14272;SDS011;7220;49.450;11.052;2023-02-03T02:03:57;9.15;;;6.18;;
14272;SDS011;7220;49.450;11.052;2023-02-03T02:08:00;9.57;;;6.55;;
14272;SDS011;7220;49.450;11.052;2023-02-03T02:12:02;9.30;;;6.70;;
14272;SDS011;7220;49.450;11.052;2023-02-03T02:20:30;6.85;;;6.15;;
14272;SDS011;7220;49.450;11.052;2023-02-03T02:24:58;8.50;;;6.43;;
14272;SDS011;7220;49.450;11.052;2023-02-03T02:33:41;7.38;;;6.07;;
14272;SDS011;7220;49.450;11.052;2023-02-03T02:42:58;9.57;;;5.78;;
14272;SDS011;7220;49.450;11.052;2023-02-03T02:47:17;9.48;;;6.18;;
14272;SDS011;7220;49.450;11.052;2023-02-03T02:51:19;7.32;;;6.10;;
14272;SDS011;7220;49.450;11.052;2023-02-03T02:55:26;9.30;;;5.82;;
14272;SDS011;7220;49.450;11.052;2023-02-03T02:59:30;6.65;;;5.55;;
14272;SDS011;7220;49.450;11.052;2023-02-03T03:03:30;10.48;;;5.70;;
14272;SDS011;7220;49.450;11.052;2023-02-03T03:07:31;9.27;;;5.90;;
14272;SDS011;7220;49.450;11.052;2023-02-03T03:11:40;8.55;;;5.75;;
14272;SDS011;7220;49.450;11.052;2023-02-03T03:15:43;7.90;;;5.53;;
14272;SDS011;7220;49.450;11.052;2023-02-03T03:19:46;6.15;;;5.20;;
14272;SDS011;7220;49.450;11.052;2023-02-03T03:23:51;5.28;;;4.78;;
14272;SDS011;7220;49.450;11.052;2023-02-03T03:27:58;9.80;;;5.05;;
14272;SDS011;7220;49.450;11.052;2023-02-03T03:32:01;4.70;;;4.22;;
14272;SDS011;7220;49.450;11.052;2023-02-03T03:40:31;6.30;;;4.20;;
14272;SDS011;7220;49.450;11.052;2023-02-03T03:44:41;5.47;;;3.90;;
14272;SDS011;7220;49.450;11.052;2023-02-03T03:48:50;6.97;;;4.40;;
14272;SDS011;7220;49.450;11.052;2023-02-03T03:52:54;5.25;;;3.97;;
14272;SDS011;7220;49.450;11.052;2023-02-03T03:56:57;7.63;;;4.28;;
14272;SDS011;7220;49.450;11.052;2023-02-03T04:01:00;5.70;;;4.00;;
14272;SDS011;7220;49.450;11.052;2023-02-03T04:05:02;4.45;;;4.05;;
14272;SDS011;7220;49.450;11.052;2023-02-03T04:09:04;6.40;;;4.22;;
14272;SDS011;7220;49.450;11.052;2023-02-03T04:13:05;5.00;;;4.10;;
14272;SDS011;7220;49.450;11.052;2023-02-03T04:17:07;5.53;;;4.15;;
14272;SDS011;7220;49.450;11.052;2023-02-03T04:21:07;4.30;;;3.90;;
14272;SDS011;7220;49.450;11.052;2023-02-03T04:25:08;4.67;;;4.27;;
14272;SDS011;7220;49.450;11.052;2023-02-03T04:29:08;5.93;;;4.43;;
14272;SDS011;7220;49.450;11.052;2023-02-03T04:33:08;6.07;;;4.00;;
14272;SDS011;7220;49.450;11.052;2023-02-03T04:37:09;5.43;;;3.95;;
14272;SDS011;7220;49.450;11.052;2023-02-03T04:41:09;4.67;;;4.17;;
14272;SDS011;7220;49.450;11.052;2023-02-03T04:45:10;4.68;;;4.28;;
14272;SDS011;7220;49.450;11.052;2023-02-03T04:49:11;4.75;;;3.80;;
14272;SDS011;7220;49.450;11.052;2023-02-03T04:53:11;5.18;;;3.47;;
14272;SDS011;7220;49.450;11.052;2023-02-03T04:57:11;4.57;;;3.22;;
14272;SDS011;7220;49.450;11.052;2023-02-03T05:01:12;5.40;;;3.63;;
14272;SDS011;7220;49.450;11.052;2023-02-03T05:05:12;3.97;;;3.35;;
14272;SDS011;7220;49.450;11.052;2023-02-03T05:09:13;5.93;;;4.22;;
14272;SDS011;7220;49.450;11.052;2023-02-03T05:13:13;3.63;;;3.33;;
14272;SDS011;7220;49.450;11.052;2023-02-03T05:17:14;4.35;;;3.17;;
14272;SDS011;7220;49.450;11.052;2023-02-03T05:21:14;3.63;;;3.33;;
14272;SDS011;7220;49.450;11.052;2023-02-03T05:25:15;4.07;;;3.20;;
14272;SDS011;7220;49.450;11.052;2023-02-03T05:29:15;2.90;;;2.70;;
14272;SDS011;7220;49.450;11.052;2023-02-03T05:33:16;2.95;;;2.60;;
14272;SDS011;7220;49.450;11.052;2023-02-03T05:37:16;3.33;;;2.50;;
14272;SDS011;7220;49.450;11.052;2023-02-03T05:41:16;3.08;;;2.67;;
14272;SDS011;7220;49.450;11.052;2023-02-03T05:45:35;2.95;;;2.65;;
14272;SDS011;7220;49.450;11.052;2023-02-03T05:49:36;4.55;;;2.60;;
14272;SDS011;7220;49.450;11.052;2023-02-03T05:53:36;3.38;;;2.40;;
14272;SDS011;7220;49.450;11.052;2023-02-03T05:57:36;3.22;;;2.30;;
14272;SDS011;7220;49.450;11.052;2023-02-03T06:01:37;2.30;;;2.10;;
14272;SDS011;7220;49.450;11.052;2023-02-03T06:05:37;2.88;;;2.50;;
14272;SDS011;7220;49.450;11.052;2023-02-03T06:09:40;2.28;;;2.08;;
14272;SDS011;7220;49.450;11.052;2023-02-03T06:13:40;2.30;;;2.10;;
14272;SDS011;7220;49.450;11.052;2023-02-03T06:17:44;2.15;;;1.95;;
14272;SDS011;7220;49.450;11.052;2023-02-03T06:21:45;2.08;;;1.88;;
14272;SDS011;7220;49.450;11.052;2023-02-03T06:25:48;1.70;;;1.60;;
14272;SDS011;7220;49.450;11.052;2023-02-03T06:29:50;2.38;;;2.17;;
14272;SDS011;7220;49.450;11.052;2023-02-03T06:33:50;1.90;;;1.80;;
14272;SDS011;7220;49.450;11.052;2023-02-03T06:37:50;2.70;;;2.20;;
14272;SDS011;7220;49.450;11.052;2023-02-03T06:41:51;2.05;;;1.73;;
14272;SDS011;7220;49.450;11.052;2023-02-03T06:45:51;2.20;;;2.00;;
14272;SDS011;7220;49.450;11.052;2023-02-03T06:49:51;1.70;;;1.60;;
14272;SDS011;7220;49.450;11.052;2023-02-03T06:53:52;1.80;;;1.70;;
14272;SDS011;7220;49.450;11.052;2023-02-03T06:57:52;2.65;;;2.00;;
14272;SDS011;7220;49.450;11.052;2023-02-03T07:01:52;1.95;;;1.80;;
14272;SDS011;7220;49.450;11.052;2023-02-03T07:05:52;2.17;;;1.98;;
14272;SDS011;7220;49.450;11.052;2023-02-03T07:09:53;2.45;;;1.73;;
14272;SDS011;7220;49.450;11.052;2023-02-03T07:13:53;2.25;;;1.60;;
14272;SDS011;7220;49.450;11.052;2023-02-03T07:17:53;2.50;;;1.88;;
14272;SDS011;7220;49.450;11.052;2023-02-03T07:21:54;2.83;;;1.70;;
14272;SDS011;7220;49.450;11.052;2023-02-03T07:25:57;1.80;;;1.70;;
14272;SDS011;7220;49.450;11.052;2023-02-03T07:29:58;1.80;;;1.70;;
14272;SDS011;7220;49.450;11.052;2023-02-03T07:33:58;1.90;;;1.80;;
14272;SDS011;7220;49.450;11.052;2023-02-03T07:38:00;2.60;;;2.40;;
14272;SDS011;7220;49.450;11.052;2023-02-03T07:42:00;2.40;;;2.20;;
14272;SDS011;7220;49.450;11.052;2023-02-03T07:46:00;6.45;;;4.50;;
14272;SDS011;7220;49.450;11.052;2023-02-03T07:50:01;4.00;;;2.85;;
14272;SDS011;7220;49.450;11.052;2023-02-03T07:54:02;4.47;;;2.42;;
14272;SDS011;7220;49.450;11.052;2023-02-03T07:58:02;2.03;;;1.92;;
14272;SDS011;7220;49.450;11.052;2023-02-03T08:02:02;2.40;;;2.20;;
14272;SDS011;7220;49.450;11.052;2023-02-03T08:06:03;2.40;;;2.10;;
14272;SDS011;7220;49.450;11.052;2023-02-03T08:10:04;2.78;;;2.17;;
14272;SDS011;7220;49.450;11.052;2023-02-03T08:14:04;3.97;;;2.00;;
14272;SDS011;7220;49.450;11.052;2023-02-03T08:18:04;2.25;;;2.03;;
14272;SDS011;7220;49.450;11.052;2023-02-03T08:22:07;2.30;;;2.08;;
14272;SDS011;7220;49.450;11.052;2023-02-03T08:26:08;2.97;;;2.42;;
14272;SDS011;7220;49.450;11.052;2023-02-03T08:30:10;2.28;;;2.00;;
14272;SDS011;7220;49.450;11.052;2023-02-03T08:34:12;2.15;;;2.00;;
14272;SDS011;7220;49.450;11.052;2023-02-03T08:38:12;3.55;;;2.00;;
14272;SDS011;7220;49.450;11.052;2023-02-03T08:42:12;2.55;;;1.90;;
14272;SDS011;7220;49.450;11.052;2023-02-03T08:46:13;2.15;;;1.95;;
14272;SDS011;7220;49.450;11.052;2023-02-03T08:50:13;2.42;;;2.22;;
14272;SDS011;7220;49.450;11.052;2023-02-03T08:54:14;3.20;;;2.22;;
14272;SDS011;7220;49.450;11.052;2023-02-03T08:58:14;2.20;;;2.00;;
14272;SDS011;7220;49.450;11.052;2023-02-03T09:02:16;2.20;;;2.00;;
14272;SDS011;7220;49.450;11.052;2023-02-03T09:06:18;2.10;;;1.88;;
14272;SDS011;7220;49.450;11.052;2023-02-03T09:10:18;1.95;;;1.83;;
14272;SDS011;7220;49.450;11.052;2023-02-03T09:14:19;3.78;;;2.75;;
14272;SDS011;7220;49.450;11.052;2023-02-03T09:18:19;1.85;;;1.70;;
14272;SDS011;7220;49.450;11.052;2023-02-03T09:22:19;2.55;;;2.33;;
14272;SDS011;7220;49.450;11.052;2023-02-03T09:26:22;1.92;;;1.73;;
14272;SDS011;7220;49.450;11.052;2023-02-03T09:30:22;1.87;;;1.77;;
14272;SDS011;7220;49.450;11.052;2023-02-03T09:34:23;4.43;;;1.80;;
14272;SDS011;7220;49.450;11.052;2023-02-03T09:38:23;2.15;;;1.95;;
14272;SDS011;7220;49.450;11.052;2023-02-03T09:46:29;2.30;;;2.10;;
14272;SDS011;7220;49.450;11.052;2023-02-03T09:50:36;2.20;;;2.10;;
14272;SDS011;7220;49.450;11.052;2023-02-03T09:58:44;2.53;;;2.30;;
14272;SDS011;7220;49.450;11.052;2023-02-03T10:07:01;4.10;;;2.67;;
14272;SDS011;7220;49.450;11.052;2023-02-03T10:11:30;2.35;;;2.05;;
14272;SDS011;7220;49.450;11.052;2023-02-03T10:15:55;1.95;;;1.85;;
14272;SDS011;7220;49.450;11.052;2023-02-03T10:24:12;1.90;;;1.80;;
14272;SDS011;7220;49.450;11.052;2023-02-03T10:28:18;1.90;;;1.80;;
14272;SDS011;7220;49.450;11.052;2023-02-03T10:32:19;2.65;;;1.90;;
14272;SDS011;7220;49.450;11.052;2023-02-03T10:36:21;2.45;;;2.00;;
14272;SDS011;7220;49.450;11.052;2023-02-03T10:40:23;2.17;;;1.90;;
14272;SDS011;7220;49.450;11.052;2023-02-03T10:44:30;2.17;;;1.80;;
14272;SDS011;7220;49.450;11.052;2023-02-03T10:48:42;2.00;;;1.80;;
14272;SDS011;7220;49.450;11.052;2023-02-03T10:52:43;2.20;;;1.80;;
14272;SDS011;7220;49.450;11.052;2023-02-03T10:56:43;2.42;;;2.00;;
14272;SDS011;7220;49.450;11.052;2023-02-03T11:00:43;1.80;;;1.70;;
14272;SDS011;7220;49.450;11.052;2023-02-03T11:04:44;2.90;;;1.90;;
14272;SDS011;7220;49.450;11.052;2023-02-03T11:08:45;2.58;;;1.60;;
14272;SDS011;7220;49.450;11.052;2023-02-03T11:12:47;2.38;;;2.17;;
14272;SDS011;7220;49.450;11.052;2023-02-03T11:16:48;3.25;;;2.00;;
14272;SDS011;7220;49.450;11.052;2023-02-03T11:20:48;5.88;;;1.98;;
14272;SDS011;7220;49.450;11.052;2023-02-03T11:24:48;2.00;;;1.90;;
14272;SDS011;7220;49.450;11.052;2023-02-03T11:28:50;2.22;;;2.03;;
14272;SDS011;7220;49.450;11.052;2023-02-03T11:32:53;3.80;;;1.90;;
14272;SDS011;7220;49.450;11.052;2023-02-03T11:36:54;2.05;;;1.90;;
14272;SDS011;7220;49.450;11.052;2023-02-03T11:40:58;3.10;;;1.92;;
14272;SDS011;7220;49.450;11.052;2023-02-03T11:53:49;4.15;;;1.90;;
14272;SDS011;7220;49.450;11.052;2023-02-03T12:07:02;1.88;;;1.60;;
14272;SDS011;7220;49.450;11.052;2023-02-03T12:20:03;3.28;;;1.95;;
14272;SDS011;7220;49.450;11.052;2023-02-03T12:32:28;2.33;;;1.77;;
14272;SDS011;7220;49.450;11.052;2023-02-03T12:37:01;1.60;;;1.50;;
14272;SDS011;7220;49.450;11.052;2023-02-03T12:41:14;1.70;;;1.60;;
14272;SDS011;7220;49.450;11.052;2023-02-03T12:45:24;1.40;;;1.30;;
14272;SDS011;7220;49.450;11.052;2023-02-03T12:53:40;1.50;;;1.40;;
14272;SDS011;7220;49.450;11.052;2023-02-03T13:02:16;1.60;;;1.50;;
14272;SDS011;7220;49.450;11.052;2023-02-03T13:06:47;1.50;;;1.40;;
14272;SDS011;7220;49.450;11.052;2023-02-03T13:15:35;1.45;;;1.30;;
14272;SDS011;7220;49.450;11.052;2023-02-03T13:19:49;2.65;;;1.70;;
14272;SDS011;7220;49.450;11.052;2023-02-03T13:23:53;1.88;;;1.75;;
14272;SDS011;7220;49.450;11.052;2023-02-03T13:45:07;1.48;;;1.35;;
14272;SDS011;7220;49.450;11.052;2023-02-03T13:49:25;2.45;;;1.73;;
14272;SDS011;7220;49.450;11.052;2023-02-03T13:53:28;1.83;;;1.48;;
14272;SDS011;7220;49.450;11.052;2023-02-03T13:57:35;2.13;;;1.50;;
14272;SDS011;7220;49.450;11.052;2023-02-03T14:01:38;1.73;;;1.63;;
14272;SDS011;7220;49.450;11.052;2023-02-03T14:05:46;2.20;;;1.20;;
14272;SDS011;7220;49.450;11.052;2023-02-03T14:18:33;2.03;;;1.47;;
14272;SDS011;7220;49.450;11.052;2023-02-03T14:22:34;1.55;;;1.27;;
14272;SDS011;7220;49.450;11.052;2023-02-03T14:26:42;2.13;;;1.30;;
14272;SDS011;7220;49.450;11.052;2023-02-03T14:31:02;1.83;;;1.10;;
14272;SDS011;7220;49.450;11.052;2023-02-03T14:35:13;1.23;;;1.15;;
14272;SDS011;7220;49.450;11.052;2023-02-03T14:52:07;1.25;;;1.15;;
14272;SDS011;7220;49.450;11.052;2023-02-03T15:00:28;1.48;;;1.38;;
14272;SDS011;7220;49.450;11.052;2023-02-03T15:04:33;1.20;;;1.20;;
14272;SDS011;7220;49.450;11.052;2023-02-03T15:12:43;1.00;;;1.00;;
14272;SDS011;7220;49.450;11.052;2023-02-03T15:17:33;1.17;;;1.08;;
14272;SDS011;7220;49.450;11.052;2023-02-03T15:21:20;1.10;;;1.10;;
14272;SDS011;7220;49.450;11.052;2023-02-03T15:25:20;1.80;;;1.27;;
14272;SDS011;7220;49.450;11.052;2023-02-03T15:29:28;1.27;;;1.17;;
14272;SDS011;7220;49.450;11.052;2023-02-03T15:33:32;1.30;;;1.15;;
14272;SDS011;7220;49.450;11.052;2023-02-03T15:38:10;1.00;;;1.00;;
14272;SDS011;7220;49.450;11.052;2023-02-03T15:42:06;1.00;;;0.98;;
14272;SDS011;7220;49.450;11.052;2023-02-03T15:46:30;2.20;;;1.92;;
14272;SDS011;7220;49.450;11.052;2023-02-03T15:50:41;2.85;;;1.38;;
14272;SDS011;7220;49.450;11.052;2023-02-03T15:54:47;2.40;;;1.58;;
14272;SDS011;7220;49.450;11.052;2023-02-03T15:58:53;1.05;;;1.00;;
14272;SDS011;7220;49.450;11.052;2023-02-03T16:02:53;1.42;;;1.30;;
14272;SDS011;7220;49.450;11.052;2023-02-03T16:06:57;1.70;;;1.60;;
14272;SDS011;7220;49.450;11.052;2023-02-03T16:10:58;1.40;;;1.30;;
14272;SDS011;7220;49.450;11.052;2023-02-03T16:14:59;1.33;;;1.23;;
14272;SDS011;7220;49.450;11.052;2023-02-03T16:19:05;1.90;;;1.70;;
14272;SDS011;7220;49.450;11.052;2023-02-03T16:23:19;2.22;;;2.03;;
14272;SDS011;7220;49.450;11.052;2023-02-03T16:31:25;1.83;;;1.20;;
14272;SDS011;7220;49.450;11.052;2023-02-03T16:35:43;1.25;;;1.20;;
14272;SDS011;7220;49.450;11.052;2023-02-03T16:40:02;1.67;;;1.58;;
14272;SDS011;7220;49.450;11.052;2023-02-03T16:44:21;2.22;;;1.33;;
14272;SDS011;7220;49.450;11.052;2023-02-03T16:48:40;1.40;;;1.30;;
14272;SDS011;7220;49.450;11.052;2023-02-03T16:52:59;1.50;;;1.40;;
14272;SDS011;7220;49.450;11.052;2023-02-03T16:56:59;1.35;;;1.25;;
14272;SDS011;7220;49.450;11.052;2023-02-03T17:01:00;2.67;;;1.30;;
14272;SDS011;7220;49.450;11.052;2023-02-03T17:05:02;1.23;;;1.10;;
14272;SDS011;7220;49.450;11.052;2023-02-03T17:09:03;1.45;;;1.35;;
14272;SDS011;7220;49.450;11.052;2023-02-03T17:13:03;1.83;;;1.67;;
14272;SDS011;7220;49.450;11.052;2023-02-03T17:17:04;1.35;;;1.25;;
14272;SDS011;7220;49.450;11.052;2023-02-03T17:21:27;1.23;;;1.13;;
14272;SDS011;7220;49.450;11.052;2023-02-03T17:25:27;1.42;;;1.30;;
14272;SDS011;7220;49.450;11.052;2023-02-03T17:29:27;1.38;;;1.27;;
14272;SDS011;7220;49.450;11.052;2023-02-03T17:33:28;1.60;;;1.50;;
14272;SDS011;7220;49.450;11.052;2023-02-03T17:37:33;1.40;;;1.30;;
14272;SDS011;7220;49.450;11.052;2023-02-03T17:41:34;2.40;;;1.73;;
14272;SDS011;7220;49.450;11.052;2023-02-03T17:45:38;1.52;;;1.35;;
14272;SDS011;7220;49.450;11.052;2023-02-03T17:49:39;2.55;;;1.80;;
14272;SDS011;7220;49.450;11.052;2023-02-03T17:53:40;2.00;;;1.90;;
14272;SDS011;7220;49.450;11.052;2023-02-03T17:57:40;2.67;;;1.90;;
14272;SDS011;7220;49.450;11.052;2023-02-03T18:01:41;2.92;;;2.63;;
14272;SDS011;7220;49.450;11.052;2023-02-03T18:05:48;2.25;;;2.05;;
14272;SDS011;7220;49.450;11.052;2023-02-03T18:09:52;3.30;;;3.00;;
14272;SDS011;7220;49.450;11.052;2023-02-03T18:13:52;1.63;;;1.53;;
14272;SDS011;7220;49.450;11.052;2023-02-03T18:17:53;2.45;;;2.10;;
14272;SDS011;7220;49.450;11.052;2023-02-03T18:21:53;2.85;;;1.85;;
14272;SDS011;7220;49.450;11.052;2023-02-03T18:25:53;2.42;;;1.73;;
14272;SDS011;7220;49.450;11.052;2023-02-03T18:29:54;1.70;;;1.60;;
14272;SDS011;7220;49.450;11.052;2023-02-03T18:33:54;1.63;;;1.52;;
14272;SDS011;7220;49.450;11.052;2023-02-03T18:37:55;1.85;;;1.73;;
14272;SDS011;7220;49.450;11.052;2023-02-03T18:41:55;3.33;;;2.13;;
14272;SDS011;7220;49.450;11.052;2023-02-03T18:45:55;2.20;;;1.97;;
14272;SDS011;7220;49.450;11.052;2023-02-03T18:49:56;2.53;;;2.20;;
14272;SDS011;7220;49.450;11.052;2023-02-03T18:53:57;2.20;;;2.00;;
14272;SDS011;7220;49.450;11.052;2023-02-03T18:57:58;2.33;;;2.13;;
14272;SDS011;7220;49.450;11.052;2023-02-03T19:01:58;2.55;;;2.35;;
14272;SDS011;7220;49.450;11.052;2023-02-03T19:05:59;3.47;;;3.15;;
14272;SDS011;7220;49.450;11.052;2023-02-03T19:09:59;2.00;;;1.90;;
14272;SDS011;7220;49.450;11.052;2023-02-03T19:14:00;2.10;;;2.00;;
14272;SDS011;7220;49.450;11.052;2023-02-03T19:18:00;2.20;;;2.00;;
14272;SDS011;7220;49.450;11.052;2023-02-03T19:22:01;2.65;;;2.40;;
14272;SDS011;7220;49.450;11.052;2023-02-03T19:26:01;5.73;;;4.53;;
14272;SDS011;7220;49.450;11.052;2023-02-03T19:30:02;3.20;;;2.65;;
14272;SDS011;7220;49.450;11.052;2023-02-03T19:34:03;2.28;;;2.08;;
14272;SDS011;7220;49.450;11.052;2023-02-03T19:38:03;2.58;;;2.38;;
14272;SDS011;7220;49.450;11.052;2023-02-03T19:42:04;2.70;;;2.50;;
14272;SDS011;7220;49.450;11.052;2023-02-03T19:46:04;2.83;;;2.30;;
14272;SDS011;7220;49.450;11.052;2023-02-03T19:50:04;2.45;;;2.25;;
14272;SDS011;7220;49.450;11.052;2023-02-03T19:54:05;4.93;;;2.58;;
14272;SDS011;7220;49.450;11.052;2023-02-03T19:58:06;3.17;;;2.38;;
14272;SDS011;7220;49.450;11.052;2023-02-03T20:02:07;3.60;;;2.75;;
14272;SDS011;7220;49.450;11.052;2023-02-03T20:06:09;2.53;;;2.20;;
14272;SDS011;7220;49.450;11.052;2023-02-03T20:10:10;3.78;;;2.38;;
14272;SDS011;7220;49.450;11.052;2023-02-03T20:14:12;3.15;;;2.60;;
14272;SDS011;7220;49.450;11.052;2023-02-03T20:18:15;3.72;;;2.72;;
14272;SDS011;7220;49.450;11.052;2023-02-03T20:22:15;3.17;;;2.77;;
14272;SDS011;7220;49.450;11.052;2023-02-03T20:26:16;3.33;;;3.00;;
14272;SDS011;7220;49.450;11.052;2023-02-03T20:30:16;2.45;;;2.20;;
14272;SDS011;7220;49.450;11.052;2023-02-03T20:34:16;3.40;;;2.58;;
14272;SDS011;7220;49.450;11.052;2023-02-03T20:38:17;3.20;;;2.60;;
14272;SDS011;7220;49.450;11.052;2023-02-03T20:42:17;2.83;;;2.50;;
14272;SDS011;7220;49.450;11.052;2023-02-03T20:46:18;4.13;;;2.42;;
14272;SDS011;7220;49.450;11.052;2023-02-03T20:50:19;6.60;;;2.97;;
14272;SDS011;7220;49.450;11.052;2023-02-03T20:54:22;3.88;;;2.70;;
14272;SDS011;7220;49.450;11.052;2023-02-03T20:58:26;7.28;;;2.80;;
14272;SDS011;7220;49.450;11.052;2023-02-03T21:02:31;9.07;;;3.08;;
14272;SDS011;7220;49.450;11.052;2023-02-03T21:06:52;4.93;;;2.80;;
14272;SDS011;7220;49.450;11.052;2023-02-03T21:10:54;9.05;;;3.03;;
14272;SDS011;7220;49.450;11.052;2023-02-03T21:14:55;8.10;;;3.85;;
14272;SDS011;7220;49.450;11.052;2023-02-03T21:18:56;4.75;;;2.85;;
14272;SDS011;7220;49.450;11.052;2023-02-03T21:22:59;7.55;;;3.45;;
14272;SDS011;7220;49.450;11.052;2023-02-03T21:26:59;6.43;;;2.75;;
14272;SDS011;7220;49.450;11.052;2023-02-03T21:31:00;5.07;;;2.65;;
14272;SDS011;7220;49.450;11.052;2023-02-03T21:35:00;5.10;;;2.80;;
14272;SDS011;7220;49.450;11.052;2023-02-03T21:39:00;8.50;;;2.97;;
14272;SDS011;7220;49.450;11.052;2023-02-03T21:43:01;7.25;;;3.33;;
14272;SDS011;7220;49.450;11.052;2023-02-03T21:47:10;7.25;;;3.35;;
14272;SDS011;7220;49.450;11.052;2023-02-03T21:51:14;10.25;;;3.30;;
14272;SDS011;7220;49.450;11.052;2023-02-03T21:55:16;7.15;;;2.60;;
14272;SDS011;7220;49.450;11.052;2023-02-03T21:59:21;6.30;;;2.63;;
14272;SDS011;7220;49.450;11.052;2023-02-03T22:03:29;8.02;;;3.22;;
14272;SDS011;7220;49.450;11.052;2023-02-03T22:07:39;10.25;;;3.60;;
14272;SDS011;7220;49.450;11.052;2023-02-03T22:11:39;7.37;;;2.90;;
14272;SDS011;7220;49.450;11.052;2023-02-03T22:15:40;12.18;;;2.95;;
14272;SDS011;7220;49.450;11.052;2023-02-03T22:19:41;10.52;;;3.10;;
14272;SDS011;7220;49.450;11.052;2023-02-03T22:23:42;8.70;;;3.20;;
14272;SDS011;7220;49.450;11.052;2023-02-03T22:27:42;7.35;;;2.63;;
14272;SDS011;7220;49.450;11.052;2023-02-03T22:31:43;11.40;;;3.27;;
14272;SDS011;7220;49.450;11.052;2023-02-03T22:35:43;8.07;;;3.08;;
14272;SDS011;7220;49.450;11.052;2023-02-03T22:39:44;9.05;;;3.20;;
14272;SDS011;7220;49.450;11.052;2023-02-03T22:43:44;11.98;;;3.30;;
14272;SDS011;7220;49.450;11.052;2023-02-03T22:47:44;14.70;;;3.65;;
14272;SDS011;7220;49.450;11.052;2023-02-03T22:51:45;9.48;;;3.22;;
14272;SDS011;7220;49.450;11.052;2023-02-03T22:55:45;9.07;;;3.00;;
14272;SDS011;7220;49.450;11.052;2023-02-03T22:59:45;8.87;;;3.60;;
14272;SDS011;7220;49.450;11.052;2023-02-03T23:03:46;8.70;;;3.42;;
14272;SDS011;7220;49.450;11.052;2023-02-03T23:07:46;7.10;;;3.50;;
14272;SDS011;7220;49.450;11.052;2023-02-03T23:11:47;5.65;;;3.13;;
14272;SDS011;7220;49.450;11.052;2023-02-03T23:15:47;8.03;;;3.57;;
14272;SDS011;7220;49.450;11.052;2023-02-03T23:19:48;7.80;;;3.17;;
14272;SDS011;7220;49.450;11.052;2023-02-03T23:23:48;7.35;;;3.00;;
14272;SDS011;7220;49.450;11.052;2023-02-03T23:27:48;11.90;;;4.25;;
14272;SDS011;7220;49.450;11.052;2023-02-03T23:31:49;8.68;;;3.67;;
14272;SDS011;7220;49.450;11.052;2023-02-03T23:35:49;9.38;;;3.60;;
14272;SDS011;7220;49.450;11.052;2023-02-03T23:39:49;7.55;;;2.88;;
14272;SDS011;7220;49.450;11.052;2023-02-03T23:43:49;11.52;;;3.35;;
14272;SDS011;7220;49.450;11.052;2023-02-03T23:47:50;8.77;;;3.35;;
14272;SDS011;7220;49.450;11.052;2023-02-03T23:51:50;8.77;;;3.55;;
14272;SDS011;7220;49.450;11.052;2023-02-03T23:55:50;11.13;;;3.60;;
14272;SDS011;7220;49.450;11.052;2023-02-03T23:59:51;11.63;;;3.60;;
